sensor_id;sensor_type;location;lat;lon;timestamp;P1;durP1;ratioP1;P2;durP2;ratioP2
75220;SDS011;63802;53.232;6.570;2024-02-26T00:01:51;27.75;;;10.50;;
75220;SDS011;63802;53.232;6.570;2024-02-26T00:04:17;32.70;;;11.38;;
75220;SDS011;63802;53.232;6.570;2024-02-26T00:06:43;33.95;;;11.30;;
75220;SDS011;63802;53.232;6.570;2024-02-26T00:09:10;33.17;;;11.93;;
75220;SDS011;63802;53.232;6.570;2024-02-26T00:11:36;24.08;;;10.50;;
75220;SDS011;63802;53.232;6.570;2024-02-26T00:14:02;30.33;;;11.50;;
75220;SDS011;63802;53.232;6.570;2024-02-26T00:16:48;30.92;;;11.93;;
75220;SDS011;63802;53.232;6.570;2024-02-26T00:19:13;31.05;;;11.15;;
75220;SDS011;63802;53.232;6.570;2024-02-26T00:21:45;28.23;;;11.57;;
75220;SDS011;63802;53.232;6.570;2024-02-26T00:24:10;31.25;;;11.25;;
75220;SDS011;63802;53.232;6.570;2024-02-26T00:26:36;27.90;;;10.05;;
75220;SDS011;63802;53.232;6.570;2024-02-26T00:29:01;27.25;;;11.50;;
75220;SDS011;63802;53.232;6.570;2024-02-26T00:31:27;28.35;;;10.30;;
75220;SDS011;63802;53.232;6.570;2024-02-26T00:33:52;32.05;;;11.15;;
75220;SDS011;63802;53.232;6.570;2024-02-26T00:36:21;30.52;;;10.38;;
75220;SDS011;63802;53.232;6.570;2024-02-26T00:38:47;31.33;;;11.55;;
75220;SDS011;63802;53.232;6.570;2024-02-26T00:41:16;27.63;;;10.40;;
75220;SDS011;63802;53.232;6.570;2024-02-26T00:43:41;27.63;;;10.32;;
75220;SDS011;63802;53.232;6.570;2024-02-26T00:46:07;24.23;;;10.57;;
75220;SDS011;63802;53.232;6.570;2024-02-26T00:48:33;24.33;;;10.95;;
75220;SDS011;63802;53.232;6.570;2024-02-26T00:50:58;29.98;;;10.40;;
75220;SDS011;63802;53.232;6.570;2024-02-26T00:53:24;26.55;;;11.23;;
75220;SDS011;63802;53.232;6.570;2024-02-26T00:55:50;30.10;;;11.02;;
75220;SDS011;63802;53.232;6.570;2024-02-26T00:58:16;31.48;;;10.77;;
75220;SDS011;63802;53.232;6.570;2024-02-26T01:00:41;30.10;;;10.65;;
75220;SDS011;63802;53.232;6.570;2024-02-26T01:03:07;29.33;;;11.40;;
75220;SDS011;63802;53.232;6.570;2024-02-26T01:05:32;30.63;;;11.13;;
75220;SDS011;63802;53.232;6.570;2024-02-26T01:07:58;27.17;;;10.02;;
75220;SDS011;63802;53.232;6.570;2024-02-26T01:10:23;25.17;;;10.60;;
75220;SDS011;63802;53.232;6.570;2024-02-26T01:12:49;22.73;;;9.25;;
75220;SDS011;63802;53.232;6.570;2024-02-26T01:15:14;22.00;;;8.15;;
75220;SDS011;63802;53.232;6.570;2024-02-26T01:17:40;20.92;;;9.07;;
75220;SDS011;63802;53.232;6.570;2024-02-26T01:20:05;24.88;;;9.88;;
75220;SDS011;63802;53.232;6.570;2024-02-26T01:22:31;22.15;;;8.32;;
75220;SDS011;63802;53.232;6.570;2024-02-26T01:24:56;17.20;;;7.68;;
75220;SDS011;63802;53.232;6.570;2024-02-26T01:27:25;20.10;;;8.25;;
75220;SDS011;63802;53.232;6.570;2024-02-26T01:29:52;18.25;;;7.20;;
75220;SDS011;63802;53.232;6.570;2024-02-26T01:32:17;18.55;;;6.70;;
75220;SDS011;63802;53.232;6.570;2024-02-26T01:34:43;18.20;;;7.63;;
75220;SDS011;63802;53.232;6.570;2024-02-26T01:37:08;17.55;;;7.03;;
75220;SDS011;63802;53.232;6.570;2024-02-26T01:39:34;19.40;;;7.57;;
75220;SDS011;63802;53.232;6.570;2024-02-26T01:42:01;21.05;;;8.35;;
75220;SDS011;63802;53.232;6.570;2024-02-26T01:44:26;18.13;;;7.53;;
75220;SDS011;63802;53.232;6.570;2024-02-26T01:46:52;17.67;;;6.68;;
75220;SDS011;63802;53.232;6.570;2024-02-26T01:49:18;19.67;;;7.88;;
75220;SDS011;63802;53.232;6.570;2024-02-26T01:51:44;18.88;;;7.97;;
75220;SDS011;63802;53.232;6.570;2024-02-26T01:54:13;19.00;;;7.53;;
75220;SDS011;63802;53.232;6.570;2024-02-26T01:56:39;20.58;;;7.78;;
75220;SDS011;63802;53.232;6.570;2024-02-26T01:59:08;16.23;;;7.30;;
75220;SDS011;63802;53.232;6.570;2024-02-26T02:01:34;17.10;;;6.47;;
75220;SDS011;63802;53.232;6.570;2024-02-26T02:04:00;15.35;;;5.68;;
75220;SDS011;63802;53.232;6.570;2024-02-26T02:06:26;14.63;;;6.13;;
75220;SDS011;63802;53.232;6.570;2024-02-26T02:08:55;16.13;;;6.67;;
75220;SDS011;63802;53.232;6.570;2024-02-26T02:11:21;15.77;;;6.90;;
75220;SDS011;63802;53.232;6.570;2024-02-26T02:13:46;13.85;;;5.55;;
75220;SDS011;63802;53.232;6.570;2024-02-26T02:16:12;16.70;;;6.13;;
75220;SDS011;63802;53.232;6.570;2024-02-26T02:18:38;13.98;;;5.55;;
75220;SDS011;63802;53.232;6.570;2024-02-26T02:21:04;15.98;;;5.63;;
75220;SDS011;63802;53.232;6.570;2024-02-26T02:23:30;18.20;;;7.13;;
75220;SDS011;63802;53.232;6.570;2024-02-26T02:25:56;15.00;;;6.45;;
75220;SDS011;63802;53.232;6.570;2024-02-26T02:28:23;15.55;;;6.43;;
75220;SDS011;63802;53.232;6.570;2024-02-26T02:30:49;11.55;;;5.60;;
75220;SDS011;63802;53.232;6.570;2024-02-26T02:33:15;14.38;;;5.97;;
75220;SDS011;63802;53.232;6.570;2024-02-26T02:35:41;13.90;;;5.30;;
75220;SDS011;63802;53.232;6.570;2024-02-26T02:38:06;12.95;;;5.03;;
75220;SDS011;63802;53.232;6.570;2024-02-26T02:40:32;11.98;;;5.30;;
75220;SDS011;63802;53.232;6.570;2024-02-26T02:42:58;15.02;;;6.32;;
75220;SDS011;63802;53.232;6.570;2024-02-26T02:45:25;10.70;;;4.63;;
75220;SDS011;63802;53.232;6.570;2024-02-26T02:47:50;14.45;;;5.13;;
75220;SDS011;63802;53.232;6.570;2024-02-26T02:50:16;14.13;;;5.15;;
75220;SDS011;63802;53.232;6.570;2024-02-26T02:52:41;13.00;;;4.95;;
75220;SDS011;63802;53.232;6.570;2024-02-26T02:55:06;12.68;;;5.32;;
75220;SDS011;63802;53.232;6.570;2024-02-26T02:57:32;12.98;;;4.45;;
75220;SDS011;63802;53.232;6.570;2024-02-26T02:59:58;13.73;;;4.82;;
75220;SDS011;63802;53.232;6.570;2024-02-26T03:02:23;13.85;;;5.05;;
75220;SDS011;63802;53.232;6.570;2024-02-26T03:04:50;10.23;;;4.18;;
75220;SDS011;63802;53.232;6.570;2024-02-26T03:07:15;15.40;;;5.38;;
75220;SDS011;63802;53.232;6.570;2024-02-26T03:09:41;10.48;;;4.60;;
75220;SDS011;63802;53.232;6.570;2024-02-26T03:12:07;12.48;;;5.20;;
75220;SDS011;63802;53.232;6.570;2024-02-26T03:14:32;10.93;;;4.13;;
75220;SDS011;63802;53.232;6.570;2024-02-26T03:16:58;12.05;;;4.50;;
75220;SDS011;63802;53.232;6.570;2024-02-26T03:19:23;10.95;;;4.32;;
75220;SDS011;63802;53.232;6.570;2024-02-26T03:21:49;11.32;;;4.50;;
75220;SDS011;63802;53.232;6.570;2024-02-26T03:24:14;9.30;;;4.45;;
75220;SDS011;63802;53.232;6.570;2024-02-26T03:26:40;13.18;;;4.18;;
75220;SDS011;63802;53.232;6.570;2024-02-26T03:29:05;10.88;;;4.40;;
75220;SDS011;63802;53.232;6.570;2024-02-26T03:31:30;11.52;;;4.70;;
75220;SDS011;63802;53.232;6.570;2024-02-26T03:33:56;12.05;;;4.80;;
75220;SDS011;63802;53.232;6.570;2024-02-26T03:36:22;9.88;;;4.82;;
75220;SDS011;63802;53.232;6.570;2024-02-26T03:38:50;9.88;;;4.55;;
75220;SDS011;63802;53.232;6.570;2024-02-26T03:41:15;10.43;;;4.32;;
75220;SDS011;63802;53.232;6.570;2024-02-26T03:43:41;8.65;;;4.00;;
75220;SDS011;63802;53.232;6.570;2024-02-26T03:46:07;7.90;;;3.42;;
75220;SDS011;63802;53.232;6.570;2024-02-26T03:48:33;11.07;;;3.95;;
75220;SDS011;63802;53.232;6.570;2024-02-26T03:50:59;11.25;;;3.75;;
75220;SDS011;63802;53.232;6.570;2024-02-26T03:53:25;9.13;;;3.72;;
75220;SDS011;63802;53.232;6.570;2024-02-26T03:55:50;9.90;;;3.92;;
75220;SDS011;63802;53.232;6.570;2024-02-26T03:58:17;11.23;;;4.20;;
75220;SDS011;63802;53.232;6.570;2024-02-26T04:00:43;11.88;;;4.45;;
75220;SDS011;63802;53.232;6.570;2024-02-26T04:03:09;11.25;;;4.30;;
75220;SDS011;63802;53.232;6.570;2024-02-26T04:05:34;12.82;;;3.60;;
75220;SDS011;63802;53.232;6.570;2024-02-26T04:07:59;10.93;;;4.38;;
75220;SDS011;63802;53.232;6.570;2024-02-26T04:10:25;10.68;;;4.35;;
75220;SDS011;63802;53.232;6.570;2024-02-26T04:12:50;11.45;;;4.47;;
75220;SDS011;63802;53.232;6.570;2024-02-26T04:15:16;10.48;;;4.05;;
75220;SDS011;63802;53.232;6.570;2024-02-26T04:17:42;11.50;;;4.45;;
75220;SDS011;63802;53.232;6.570;2024-02-26T04:20:07;14.27;;;3.90;;
75220;SDS011;63802;53.232;6.570;2024-02-26T04:22:34;9.57;;;3.88;;
75220;SDS011;63802;53.232;6.570;2024-02-26T04:25:00;8.82;;;3.22;;
75220;SDS011;63802;53.232;6.570;2024-02-26T04:27:25;13.52;;;3.83;;
75220;SDS011;63802;53.232;6.570;2024-02-26T04:29:51;7.10;;;3.33;;
75220;SDS011;63802;53.232;6.570;2024-02-26T04:32:16;9.90;;;4.63;;
75220;SDS011;63802;53.232;6.570;2024-02-26T04:34:42;9.88;;;3.63;;
75220;SDS011;63802;53.232;6.570;2024-02-26T04:37:08;7.90;;;3.17;;
75220;SDS011;63802;53.232;6.570;2024-02-26T04:39:33;8.52;;;3.17;;
75220;SDS011;63802;53.232;6.570;2024-02-26T04:41:59;7.97;;;3.38;;
75220;SDS011;63802;53.232;6.570;2024-02-26T04:44:28;9.55;;;3.55;;
75220;SDS011;63802;53.232;6.570;2024-02-26T04:46:54;8.82;;;3.33;;
75220;SDS011;63802;53.232;6.570;2024-02-26T04:49:20;5.97;;;2.90;;
75220;SDS011;63802;53.232;6.570;2024-02-26T04:51:45;7.35;;;3.30;;
75220;SDS011;63802;53.232;6.570;2024-02-26T04:54:13;7.95;;;3.85;;
75220;SDS011;63802;53.232;6.570;2024-02-26T04:56:38;6.70;;;3.22;;
75220;SDS011;63802;53.232;6.570;2024-02-26T04:59:04;6.13;;;3.20;;
75220;SDS011;63802;53.232;6.570;2024-02-26T05:01:29;8.48;;;3.28;;
75220;SDS011;63802;53.232;6.570;2024-02-26T05:03:55;7.30;;;3.25;;
75220;SDS011;63802;53.232;6.570;2024-02-26T05:06:20;8.23;;;3.05;;
75220;SDS011;63802;53.232;6.570;2024-02-26T05:08:45;6.32;;;2.70;;
75220;SDS011;63802;53.232;6.570;2024-02-26T05:11:19;5.95;;;2.80;;
75220;SDS011;63802;53.232;6.570;2024-02-26T05:13:45;7.97;;;3.15;;
75220;SDS011;63802;53.232;6.570;2024-02-26T05:16:19;6.00;;;2.88;;
75220;SDS011;63802;53.232;6.570;2024-02-26T05:18:46;8.90;;;3.47;;
75220;SDS011;63802;53.232;6.570;2024-02-26T05:21:12;7.30;;;3.15;;
75220;SDS011;63802;53.232;6.570;2024-02-26T05:23:37;7.88;;;3.28;;
75220;SDS011;63802;53.232;6.570;2024-02-26T05:26:03;8.65;;;3.40;;
75220;SDS011;63802;53.232;6.570;2024-02-26T05:28:28;7.40;;;3.42;;
75220;SDS011;63802;53.232;6.570;2024-02-26T05:30:54;6.97;;;3.00;;
75220;SDS011;63802;53.232;6.570;2024-02-26T05:33:19;7.88;;;3.42;;
75220;SDS011;63802;53.232;6.570;2024-02-26T05:35:45;7.22;;;3.03;;
75220;SDS011;63802;53.232;6.570;2024-02-26T05:38:10;7.25;;;3.45;;
75220;SDS011;63802;53.232;6.570;2024-02-26T05:40:35;4.60;;;2.60;;
75220;SDS011;63802;53.232;6.570;2024-02-26T05:43:01;8.88;;;2.85;;
75220;SDS011;63802;53.232;6.570;2024-02-26T05:45:27;5.65;;;2.83;;
75220;SDS011;63802;53.232;6.570;2024-02-26T05:47:52;5.38;;;2.97;;
75220;SDS011;63802;53.232;6.570;2024-02-26T05:50:17;8.13;;;3.25;;
75220;SDS011;63802;53.232;6.570;2024-02-26T05:52:43;6.20;;;2.38;;
75220;SDS011;63802;53.232;6.570;2024-02-26T05:55:11;7.57;;;3.05;;
75220;SDS011;63802;53.232;6.570;2024-02-26T05:57:37;5.18;;;2.42;;
75220;SDS011;63802;53.232;6.570;2024-02-26T06:00:03;6.40;;;2.80;;
75220;SDS011;63802;53.232;6.570;2024-02-26T06:02:29;6.90;;;2.65;;
75220;SDS011;63802;53.232;6.570;2024-02-26T06:04:55;5.07;;;2.88;;
75220;SDS011;63802;53.232;6.570;2024-02-26T06:07:20;4.60;;;2.88;;
75220;SDS011;63802;53.232;6.570;2024-02-26T06:09:46;4.60;;;2.42;;
75220;SDS011;63802;53.232;6.570;2024-02-26T06:12:13;5.03;;;2.55;;
75220;SDS011;63802;53.232;6.570;2024-02-26T06:14:39;3.70;;;2.40;;
75220;SDS011;63802;53.232;6.570;2024-02-26T06:17:04;4.15;;;2.25;;
75220;SDS011;63802;53.232;6.570;2024-02-26T06:19:29;3.55;;;2.13;;
75220;SDS011;63802;53.232;6.570;2024-02-26T06:21:58;6.05;;;2.65;;
75220;SDS011;63802;53.232;6.570;2024-02-26T06:24:24;4.82;;;2.83;;
75220;SDS011;63802;53.232;6.570;2024-02-26T06:26:49;6.90;;;2.88;;
75220;SDS011;63802;53.232;6.570;2024-02-26T06:29:15;6.18;;;2.83;;
75220;SDS011;63802;53.232;6.570;2024-02-26T06:31:40;6.65;;;3.00;;
75220;SDS011;63802;53.232;6.570;2024-02-26T06:34:06;6.78;;;2.97;;
75220;SDS011;63802;53.232;6.570;2024-02-26T06:36:31;9.02;;;2.85;;
75220;SDS011;63802;53.232;6.570;2024-02-26T06:38:57;5.88;;;2.67;;
75220;SDS011;63802;53.232;6.570;2024-02-26T06:41:23;7.28;;;3.17;;
75220;SDS011;63802;53.232;6.570;2024-02-26T06:43:57;5.28;;;3.00;;
75220;SDS011;63802;53.232;6.570;2024-02-26T06:46:26;5.68;;;2.92;;
75220;SDS011;63802;53.232;6.570;2024-02-26T06:48:54;7.53;;;3.53;;
75220;SDS011;63802;53.232;6.570;2024-02-26T06:51:19;6.90;;;2.90;;
75220;SDS011;63802;53.232;6.570;2024-02-26T06:53:45;8.75;;;3.05;;
75220;SDS011;63802;53.232;6.570;2024-02-26T06:56:10;6.53;;;3.25;;
75220;SDS011;63802;53.232;6.570;2024-02-26T06:58:35;5.85;;;2.60;;
75220;SDS011;63802;53.232;6.570;2024-02-26T07:01:01;6.03;;;2.75;;
75220;SDS011;63802;53.232;6.570;2024-02-26T07:03:26;3.55;;;2.28;;
75220;SDS011;63802;53.232;6.570;2024-02-26T07:05:52;4.43;;;2.65;;
75220;SDS011;63802;53.232;6.570;2024-02-26T07:08:17;7.63;;;2.33;;
75220;SDS011;63802;53.232;6.570;2024-02-26T07:10:43;5.90;;;2.97;;
75220;SDS011;63802;53.232;6.570;2024-02-26T07:13:09;6.85;;;3.20;;
75220;SDS011;63802;53.232;6.570;2024-02-26T07:15:34;6.35;;;2.72;;
75220;SDS011;63802;53.232;6.570;2024-02-26T07:18:00;6.10;;;3.03;;
75220;SDS011;63802;53.232;6.570;2024-02-26T07:20:28;5.72;;;2.75;;
75220;SDS011;63802;53.232;6.570;2024-02-26T07:22:55;5.10;;;2.88;;
75220;SDS011;63802;53.232;6.570;2024-02-26T07:25:20;5.43;;;2.50;;
75220;SDS011;63802;53.232;6.570;2024-02-26T07:27:46;6.53;;;2.58;;
75220;SDS011;63802;53.232;6.570;2024-02-26T07:30:11;5.55;;;2.88;;
75220;SDS011;63802;53.232;6.570;2024-02-26T07:32:37;6.30;;;2.40;;
75220;SDS011;63802;53.232;6.570;2024-02-26T07:35:03;5.43;;;2.70;;
75220;SDS011;63802;53.232;6.570;2024-02-26T07:37:29;6.78;;;2.95;;
75220;SDS011;63802;53.232;6.570;2024-02-26T07:39:54;8.50;;;2.75;;
75220;SDS011;63802;53.232;6.570;2024-02-26T07:42:20;5.13;;;2.85;;
75220;SDS011;63802;53.232;6.570;2024-02-26T07:44:45;6.00;;;2.35;;
75220;SDS011;63802;53.232;6.570;2024-02-26T07:47:17;5.13;;;2.85;;
75220;SDS011;63802;53.232;6.570;2024-02-26T07:49:42;6.35;;;2.75;;
75220;SDS011;63802;53.232;6.570;2024-02-26T07:52:08;3.80;;;2.50;;
75220;SDS011;63802;53.232;6.570;2024-02-26T07:54:33;5.05;;;2.55;;
75220;SDS011;63802;53.232;6.570;2024-02-26T07:56:58;3.72;;;2.45;;
75220;SDS011;63802;53.232;6.570;2024-02-26T07:59:24;6.00;;;2.60;;
75220;SDS011;63802;53.232;6.570;2024-02-26T08:01:52;4.95;;;2.70;;
75220;SDS011;63802;53.232;6.570;2024-02-26T08:04:18;4.32;;;2.17;;
75220;SDS011;63802;53.232;6.570;2024-02-26T08:06:44;3.00;;;2.20;;
75220;SDS011;63802;53.232;6.570;2024-02-26T08:09:09;5.53;;;2.22;;
75220;SDS011;63802;53.232;6.570;2024-02-26T08:11:35;3.30;;;2.08;;
75220;SDS011;63802;53.232;6.570;2024-02-26T08:14:01;3.20;;;1.70;;
75220;SDS011;63802;53.232;6.570;2024-02-26T08:16:26;3.45;;;2.08;;
75220;SDS011;63802;53.232;6.570;2024-02-26T08:18:52;3.13;;;1.80;;
75220;SDS011;63802;53.232;6.570;2024-02-26T08:21:18;5.40;;;2.20;;
75220;SDS011;63802;53.232;6.570;2024-02-26T08:23:43;3.35;;;1.63;;
75220;SDS011;63802;53.232;6.570;2024-02-26T08:26:09;4.32;;;2.00;;
75220;SDS011;63802;53.232;6.570;2024-02-26T08:28:36;4.20;;;2.38;;
75220;SDS011;63802;53.232;6.570;2024-02-26T08:31:03;2.67;;;1.67;;
75220;SDS011;63802;53.232;6.570;2024-02-26T08:33:31;1.65;;;1.45;;
75220;SDS011;63802;53.232;6.570;2024-02-26T08:35:58;1.95;;;1.50;;
75220;SDS011;63802;53.232;6.570;2024-02-26T08:38:24;2.33;;;1.63;;
75220;SDS011;63802;53.232;6.570;2024-02-26T08:40:50;3.00;;;1.83;;
75220;SDS011;63802;53.232;6.570;2024-02-26T08:43:15;2.15;;;1.60;;
75220;SDS011;63802;53.232;6.570;2024-02-26T08:45:40;3.58;;;2.10;;
75220;SDS011;63802;53.232;6.570;2024-02-26T08:48:09;2.13;;;1.70;;
75220;SDS011;63802;53.232;6.570;2024-02-26T08:50:34;3.28;;;1.88;;
75220;SDS011;63802;53.232;6.570;2024-02-26T08:53:00;5.53;;;1.80;;
75220;SDS011;63802;53.232;6.570;2024-02-26T08:55:26;2.78;;;1.48;;
75220;SDS011;63802;53.232;6.570;2024-02-26T08:57:51;3.10;;;1.80;;
75220;SDS011;63802;53.232;6.570;2024-02-26T09:00:17;2.85;;;1.83;;
75220;SDS011;63802;53.232;6.570;2024-02-26T09:02:45;3.05;;;1.85;;
75220;SDS011;63802;53.232;6.570;2024-02-26T09:05:12;4.65;;;1.70;;
75220;SDS011;63802;53.232;6.570;2024-02-26T09:07:37;2.72;;;1.80;;
75220;SDS011;63802;53.232;6.570;2024-02-26T09:10:03;3.08;;;1.90;;
75220;SDS011;63802;53.232;6.570;2024-02-26T09:12:29;3.08;;;1.75;;
75220;SDS011;63802;53.232;6.570;2024-02-26T09:14:55;2.92;;;1.85;;
75220;SDS011;63802;53.232;6.570;2024-02-26T09:17:22;3.42;;;1.65;;
75220;SDS011;63802;53.232;6.570;2024-02-26T09:19:48;4.45;;;2.10;;
75220;SDS011;63802;53.232;6.570;2024-02-26T09:22:14;4.00;;;1.88;;
75220;SDS011;63802;53.232;6.570;2024-02-26T09:24:40;4.53;;;2.42;;
75220;SDS011;63802;53.232;6.570;2024-02-26T09:27:07;3.20;;;2.00;;
75220;SDS011;63802;53.232;6.570;2024-02-26T09:29:35;3.45;;;2.00;;
75220;SDS011;63802;53.232;6.570;2024-02-26T09:32:04;3.80;;;1.85;;
75220;SDS011;63802;53.232;6.570;2024-02-26T09:34:30;4.45;;;1.80;;
75220;SDS011;63802;53.232;6.570;2024-02-26T09:36:56;6.80;;;2.17;;
75220;SDS011;63802;53.232;6.570;2024-02-26T09:39:21;3.03;;;2.05;;
75220;SDS011;63802;53.232;6.570;2024-02-26T09:41:53;3.33;;;1.90;;
75220;SDS011;63802;53.232;6.570;2024-02-26T09:44:19;4.00;;;2.00;;
75220;SDS011;63802;53.232;6.570;2024-02-26T09:46:48;6.63;;;2.40;;
75220;SDS011;63802;53.232;6.570;2024-02-26T09:49:26;5.57;;;2.58;;
75220;SDS011;63802;53.232;6.570;2024-02-26T09:51:51;3.70;;;1.85;;
75220;SDS011;63802;53.232;6.570;2024-02-26T09:54:20;3.55;;;1.92;;
75220;SDS011;63802;53.232;6.570;2024-02-26T09:56:51;3.45;;;1.67;;
75220;SDS011;63802;53.232;6.570;2024-02-26T09:59:20;2.95;;;1.33;;
75220;SDS011;63802;53.232;6.570;2024-02-26T10:01:46;3.47;;;1.98;;
75220;SDS011;63802;53.232;6.570;2024-02-26T10:04:14;2.80;;;1.80;;
75220;SDS011;63802;53.232;6.570;2024-02-26T10:06:39;2.90;;;1.52;;
75220;SDS011;63802;53.232;6.570;2024-02-26T10:09:06;2.78;;;1.98;;
75220;SDS011;63802;53.232;6.570;2024-02-26T10:11:34;2.55;;;1.60;;
75220;SDS011;63802;53.232;6.570;2024-02-26T10:14:00;3.05;;;1.70;;
75220;SDS011;63802;53.232;6.570;2024-02-26T10:16:26;1.63;;;1.25;;
75220;SDS011;63802;53.232;6.570;2024-02-26T10:18:52;1.80;;;1.40;;
75220;SDS011;63802;53.232;6.570;2024-02-26T10:21:21;2.40;;;1.48;;
75220;SDS011;63802;53.232;6.570;2024-02-26T10:23:47;1.63;;;1.20;;
75220;SDS011;63802;53.232;6.570;2024-02-26T10:26:14;1.77;;;1.10;;
75220;SDS011;63802;53.232;6.570;2024-02-26T10:28:43;8.20;;;1.60;;
75220;SDS011;63802;53.232;6.570;2024-02-26T10:31:10;2.88;;;1.02;;
75220;SDS011;63802;53.232;6.570;2024-02-26T10:33:36;2.95;;;1.55;;
75220;SDS011;63802;53.232;6.570;2024-02-26T10:36:06;1.63;;;1.10;;
75220;SDS011;63802;53.232;6.570;2024-02-26T10:38:33;2.30;;;1.40;;
75220;SDS011;63802;53.232;6.570;2024-02-26T10:41:01;1.48;;;1.20;;
75220;SDS011;63802;53.232;6.570;2024-02-26T10:43:31;3.47;;;1.20;;
75220;SDS011;63802;53.232;6.570;2024-02-26T10:45:56;1.60;;;1.40;;
75220;SDS011;63802;53.232;6.570;2024-02-26T10:48:23;2.65;;;1.48;;
75220;SDS011;63802;53.232;6.570;2024-02-26T10:50:49;2.20;;;1.40;;
75220;SDS011;63802;53.232;6.570;2024-02-26T10:53:26;2.25;;;1.50;;
75220;SDS011;63802;53.232;6.570;2024-02-26T10:55:54;1.50;;;1.13;;
75220;SDS011;63802;53.232;6.570;2024-02-26T10:58:24;3.95;;;1.83;;
75220;SDS011;63802;53.232;6.570;2024-02-26T11:00:50;1.70;;;1.48;;
75220;SDS011;63802;53.232;6.570;2024-02-26T11:03:17;3.70;;;1.52;;
75220;SDS011;63802;53.232;6.570;2024-02-26T11:05:44;3.65;;;1.70;;
75220;SDS011;63802;53.232;6.570;2024-02-26T11:10:47;3.10;;;1.60;;
75220;SDS011;63802;53.232;6.570;2024-02-26T11:13:14;2.92;;;1.55;;
75220;SDS011;63802;53.232;6.570;2024-02-26T11:15:40;3.38;;;1.60;;
75220;SDS011;63802;53.232;6.570;2024-02-26T11:18:07;5.00;;;1.83;;
75220;SDS011;63802;53.232;6.570;2024-02-26T11:20:34;7.43;;;2.00;;
75220;SDS011;63802;53.232;6.570;2024-02-26T11:23:03;4.75;;;2.00;;
75220;SDS011;63802;53.232;6.570;2024-02-26T11:25:28;4.22;;;1.98;;
75220;SDS011;63802;53.232;6.570;2024-02-26T11:27:55;5.50;;;2.38;;
75220;SDS011;63802;53.232;6.570;2024-02-26T11:30:26;4.00;;;2.10;;
75220;SDS011;63802;53.232;6.570;2024-02-26T11:32:56;3.75;;;2.13;;
75220;SDS011;63802;53.232;6.570;2024-02-26T11:35:22;5.25;;;2.33;;
75220;SDS011;63802;53.232;6.570;2024-02-26T11:37:55;3.72;;;2.20;;
75220;SDS011;63802;53.232;6.570;2024-02-26T11:40:24;3.80;;;2.20;;
75220;SDS011;63802;53.232;6.570;2024-02-26T11:42:51;4.93;;;2.53;;
75220;SDS011;63802;53.232;6.570;2024-02-26T11:50:36;4.10;;;2.30;;
75220;SDS011;63802;53.232;6.570;2024-02-26T11:55:48;5.97;;;2.20;;
75220;SDS011;63802;53.232;6.570;2024-02-26T11:58:34;4.70;;;2.60;;
75220;SDS011;63802;53.232;6.570;2024-02-26T12:00:59;7.78;;;2.70;;
75220;SDS011;63802;53.232;6.570;2024-02-26T12:03:24;5.40;;;2.97;;
75220;SDS011;63802;53.232;6.570;2024-02-26T12:05:51;6.72;;;2.72;;
75220;SDS011;63802;53.232;6.570;2024-02-26T12:08:16;7.55;;;3.33;;
75220;SDS011;63802;53.232;6.570;2024-02-26T12:10:44;7.03;;;3.22;;
75220;SDS011;63802;53.232;6.570;2024-02-26T12:13:11;7.32;;;3.20;;
75220;SDS011;63802;53.232;6.570;2024-02-26T12:15:44;7.35;;;2.90;;
75220;SDS011;63802;53.232;6.570;2024-02-26T12:18:12;8.60;;;3.28;;
75220;SDS011;63802;53.232;6.570;2024-02-26T12:20:42;6.13;;;2.92;;
75220;SDS011;63802;53.232;6.570;2024-02-26T12:23:09;7.88;;;3.15;;
75220;SDS011;63802;53.232;6.570;2024-02-26T12:25:40;7.47;;;3.08;;
75220;SDS011;63802;53.232;6.570;2024-02-26T12:28:05;8.48;;;3.67;;
75220;SDS011;63802;53.232;6.570;2024-02-26T12:30:32;7.68;;;3.33;;
75220;SDS011;63802;53.232;6.570;2024-02-26T12:32:57;7.00;;;3.35;;
75220;SDS011;63802;53.232;6.570;2024-02-26T12:35:25;7.95;;;3.55;;
75220;SDS011;63802;53.232;6.570;2024-02-26T12:37:52;8.30;;;3.53;;
75220;SDS011;63802;53.232;6.570;2024-02-26T12:40:19;8.85;;;3.92;;
75220;SDS011;63802;53.232;6.570;2024-02-26T12:42:45;8.75;;;3.88;;
75220;SDS011;63802;53.232;6.570;2024-02-26T12:45:11;10.50;;;3.70;;
75220;SDS011;63802;53.232;6.570;2024-02-26T12:50:04;7.50;;;3.22;;
75220;SDS011;63802;53.232;6.570;2024-02-26T12:52:31;10.00;;;4.15;;
75220;SDS011;63802;53.232;6.570;2024-02-26T12:54:58;6.28;;;3.45;;
75220;SDS011;63802;53.232;6.570;2024-02-26T12:57:25;8.68;;;3.70;;
75220;SDS011;63802;53.232;6.570;2024-02-26T12:59:51;10.80;;;3.67;;
75220;SDS011;63802;53.232;6.570;2024-02-26T13:02:17;10.00;;;3.72;;
75220;SDS011;63802;53.232;6.570;2024-02-26T13:04:43;9.30;;;3.95;;
75220;SDS011;63802;53.232;6.570;2024-02-26T13:07:09;7.53;;;3.42;;
75220;SDS011;63802;53.232;6.570;2024-02-26T13:09:35;6.78;;;3.63;;
75220;SDS011;63802;53.232;6.570;2024-02-26T13:12:03;8.98;;;3.50;;
75220;SDS011;63802;53.232;6.570;2024-02-26T13:14:30;8.40;;;3.60;;
75220;SDS011;63802;53.232;6.570;2024-02-26T13:17:00;8.90;;;3.67;;
75220;SDS011;63802;53.232;6.570;2024-02-26T13:19:26;9.20;;;3.10;;
75220;SDS011;63802;53.232;6.570;2024-02-26T13:21:53;7.68;;;3.58;;
75220;SDS011;63802;53.232;6.570;2024-02-26T13:24:19;9.25;;;4.00;;
75220;SDS011;63802;53.232;6.570;2024-02-26T13:26:45;8.45;;;3.83;;
75220;SDS011;63802;53.232;6.570;2024-02-26T13:29:20;7.65;;;3.65;;
75220;SDS011;63802;53.232;6.570;2024-02-26T13:31:46;8.52;;;3.72;;
75220;SDS011;63802;53.232;6.570;2024-02-26T13:34:26;8.18;;;3.70;;
75220;SDS011;63802;53.232;6.570;2024-02-26T13:36:53;6.80;;;3.30;;
75220;SDS011;63802;53.232;6.570;2024-02-26T13:39:23;7.93;;;3.90;;
75220;SDS011;63802;53.232;6.570;2024-02-26T13:44:15;7.88;;;3.65;;
75220;SDS011;63802;53.232;6.570;2024-02-26T13:46:40;8.85;;;3.78;;
75220;SDS011;63802;53.232;6.570;2024-02-26T13:49:07;7.47;;;3.70;;
75220;SDS011;63802;53.232;6.570;2024-02-26T13:51:34;8.30;;;3.95;;
75220;SDS011;63802;53.232;6.570;2024-02-26T13:54:00;9.32;;;3.97;;
75220;SDS011;63802;53.232;6.570;2024-02-26T13:56:26;9.00;;;4.15;;
75220;SDS011;63802;53.232;6.570;2024-02-26T13:58:51;9.25;;;4.30;;
75220;SDS011;63802;53.232;6.570;2024-02-26T14:01:17;9.10;;;3.70;;
75220;SDS011;63802;53.232;6.570;2024-02-26T14:03:42;9.98;;;4.18;;
75220;SDS011;63802;53.232;6.570;2024-02-26T14:06:08;8.23;;;4.13;;
75220;SDS011;63802;53.232;6.570;2024-02-26T14:08:33;9.48;;;4.65;;
75220;SDS011;63802;53.232;6.570;2024-02-26T14:10:59;9.93;;;4.18;;
75220;SDS011;63802;53.232;6.570;2024-02-26T14:13:31;8.52;;;4.03;;
75220;SDS011;63802;53.232;6.570;2024-02-26T14:15:56;10.68;;;4.38;;
75220;SDS011;63802;53.232;6.570;2024-02-26T14:18:22;10.75;;;4.20;;
75220;SDS011;63802;53.232;6.570;2024-02-26T14:20:48;8.05;;;3.95;;
75220;SDS011;63802;53.232;6.570;2024-02-26T14:23:13;8.25;;;4.03;;
75220;SDS011;63802;53.232;6.570;2024-02-26T14:25:39;9.02;;;3.60;;
75220;SDS011;63802;53.232;6.570;2024-02-26T14:28:04;9.98;;;3.53;;
75220;SDS011;63802;53.232;6.570;2024-02-26T14:30:31;7.65;;;3.83;;
75220;SDS011;63802;53.232;6.570;2024-02-26T14:32:57;10.45;;;3.97;;
75220;SDS011;63802;53.232;6.570;2024-02-26T14:35:23;10.93;;;4.43;;
75220;SDS011;63802;53.232;6.570;2024-02-26T14:37:48;8.13;;;3.55;;
75220;SDS011;63802;53.232;6.570;2024-02-26T14:40:15;7.80;;;3.97;;
75220;SDS011;63802;53.232;6.570;2024-02-26T14:42:41;8.77;;;4.03;;
75220;SDS011;63802;53.232;6.570;2024-02-26T14:45:07;10.38;;;3.65;;
75220;SDS011;63802;53.232;6.570;2024-02-26T14:47:40;6.43;;;3.00;;
75220;SDS011;63802;53.232;6.570;2024-02-26T14:50:05;8.40;;;2.90;;
75220;SDS011;63802;53.232;6.570;2024-02-26T14:52:31;6.80;;;2.97;;
75220;SDS011;63802;53.232;6.570;2024-02-26T14:54:56;5.85;;;3.13;;